createdAt,value
2023-04-16T00:00:57.632Z,24.67
2023-04-16T00:06:12.593Z,19.73
2023-04-16T00:11:17.127Z,22.90
2023-04-16T00:16:20.719Z,25.23
2023-04-16T00:21:26.702Z,24.85
2023-04-16T00:26:30.484Z,21.73
2023-04-16T00:31:35.015Z,24.50
2023-04-16T00:36:39.877Z,24.42
2023-04-16T00:41:44.737Z,25.98
2023-04-16T00:46:48.244Z,30.88
2023-04-16T00:51:53.060Z,24.83
2023-04-16T00:56:58.284Z,26.85
2023-04-16T01:02:01.839Z,26.25
2023-04-16T01:07:07.216Z,25.20
2023-04-16T01:12:10.910Z,27.40
2023-04-16T01:17:14.342Z,26.17
2023-04-16T01:22:19.172Z,28.92
2023-04-16T01:27:22.586Z,25.25
2023-04-16T01:32:26.395Z,29.92
2023-04-16T01:37:32.151Z,29.27
2023-04-16T01:42:35.582Z,29.25
2023-04-16T01:47:39.141Z,25.25
2023-04-16T01:52:43.971Z,27.20
2023-04-16T01:57:47.399Z,29.50
2023-04-16T02:02:51.128Z,24.67
2023-04-16T02:07:56.035Z,25.15
2023-04-16T02:13:00.316Z,25.25
2023-04-16T02:18:04.421Z,24.95
2023-04-16T02:23:09.356Z,26.20
2023-04-16T02:28:14.137Z,26.00
2023-04-16T02:33:17.931Z,22.05
2023-04-16T02:38:22.651Z,23.75
2023-04-16T02:43:26.150Z,28.70
2023-04-16T02:48:29.626Z,28.42
2023-04-16T02:53:34.567Z,25.75
2023-04-16T02:58:38.313Z,29.27
2023-04-16T03:03:41.737Z,26.98
2023-04-16T03:08:46.511Z,27.20
2023-04-16T03:13:50.062Z,30.90
2023-04-16T03:18:53.571Z,30.83
2023-04-16T03:23:58.320Z,32.67
2023-04-16T03:29:05.421Z,38.33
2023-04-16T03:34:08.827Z,39.67
2023-04-16T03:39:13.640Z,33.15
2023-04-16T03:44:17.272Z,32.45
2023-04-16T03:49:20.933Z,32.38
2023-04-16T03:54:25.783Z,35.70
2023-04-16T03:59:29.612Z,31.02
2023-04-16T04:04:33.333Z,28.70
2023-04-16T04:09:38.125Z,28.02
2023-04-16T04:14:42.243Z,30.05
2023-04-16T04:19:59.929Z,28.40
2023-04-16T04:25:06.114Z,30.10
2023-04-16T04:30:11.089Z,27.40
2023-04-16T04:35:14.539Z,28.60
2023-04-16T04:40:22.064Z,30.42
2023-04-16T04:45:26.774Z,27.10
2023-04-16T04:50:30.665Z,33.20
2023-04-16T04:55:35.993Z,31.52
2023-04-16T05:00:39.499Z,31.40
2023-04-16T05:05:43.167Z,32.88
2023-04-16T05:10:47.959Z,26.63
2023-04-16T05:15:51.743Z,28.27
2023-04-16T05:20:55.930Z,26.70
2023-04-16T05:26:00.757Z,30.95
2023-04-16T05:31:04.239Z,39.47
2023-04-16T05:36:08.080Z,37.13
2023-04-16T05:41:12.801Z,34.55
2023-04-16T05:46:16.271Z,40.30
2023-04-16T05:51:20.163Z,36.10
2023-04-16T05:56:25.526Z,33.78
2023-04-16T06:01:29.199Z,36.67
2023-04-16T06:06:32.653Z,34.83
2023-04-16T06:11:37.744Z,35.42
2023-04-16T06:16:41.500Z,35.83
2023-04-16T06:21:44.972Z,30.98
2023-04-16T06:26:50.023Z,32.58
2023-04-16T06:31:53.883Z,32.67
2023-04-16T06:36:57.375Z,32.28
2023-04-16T06:42:02.389Z,33.35
2023-04-16T06:47:06.033Z,33.25
2023-04-16T06:52:09.829Z,34.97
2023-04-16T06:57:14.697Z,30.92
2023-04-16T07:02:19.956Z,33.67
2023-04-16T07:07:23.781Z,38.67
2023-04-16T07:12:28.672Z,35.47
2023-04-16T07:17:33.024Z,37.28
2023-04-16T07:22:36.541Z,38.75
2023-04-16T07:27:41.554Z,35.92
2023-04-16T07:32:45.067Z,32.30
2023-04-16T07:37:48.485Z,32.88
2023-04-16T07:42:53.511Z,39.20
2023-04-16T07:47:57.023Z,38.83
2023-04-16T07:53:00.527Z,33.75
2023-04-16T07:58:06.488Z,33.88
2023-04-16T08:03:10.062Z,36.88
2023-04-16T08:08:13.700Z,35.88
2023-04-16T08:13:18.394Z,33.80
2023-04-16T08:18:21.861Z,34.38
2023-04-16T08:23:25.311Z,28.95
2023-04-16T08:28:30.136Z,31.88
2023-04-16T08:33:33.599Z,29.90
2023-04-16T08:38:37.098Z,27.77
2023-04-16T08:43:46.190Z,23.63
2023-04-16T08:48:51.727Z,21.45
2023-04-16T08:54:00.814Z,23.20
2023-04-16T08:59:06.377Z,17.33
2023-04-16T09:04:10.846Z,16.38
2023-04-16T09:09:15.831Z,14.15
2023-04-16T09:14:20.993Z,12.27
2023-04-16T09:19:24.947Z,10.70
2023-04-16T09:24:29.714Z,11.57
2023-04-16T09:29:38.868Z,11.80
2023-04-16T09:34:56.693Z,15.00
2023-04-16T09:40:01.952Z,10.35
2023-04-16T10:55:03.799Z,11.60
2023-04-16T11:00:23.978Z,9.88
2023-04-16T11:05:46.897Z,8.15
2023-04-16T11:10:53.010Z,9.55
2023-04-16T11:15:59.039Z,9.18
2023-04-16T11:21:02.703Z,7.20
2023-04-16T11:26:20.871Z,4.65
2023-04-16T11:31:27.313Z,4.03
2023-04-16T11:36:44.185Z,4.15
2023-04-16T11:41:50.533Z,3.15
2023-04-16T11:46:55.064Z,3.30
2023-04-16T11:51:59.168Z,3.67
2023-04-16T11:57:05.037Z,2.45
2023-04-16T12:02:08.588Z,2.55
2023-04-16T12:07:13.889Z,4.07
2023-04-16T12:12:30.702Z,2.42
2023-04-16T12:17:35.618Z,3.15
2023-04-16T12:22:40.121Z,3.53
2023-04-16T12:27:48.015Z,2.92
2023-04-16T12:32:56.055Z,5.22
2023-04-16T12:38:01.098Z,5.13
2023-04-16T12:43:06.220Z,3.95
2023-04-16T12:48:09.698Z,6.35
2023-04-16T12:53:13.264Z,5.30
2023-04-16T12:58:18.291Z,4.70
2023-04-16T13:03:22.083Z,4.35
2023-04-16T13:08:25.760Z,4.20
2023-04-16T13:13:30.974Z,5.43
2023-04-16T13:18:34.695Z,5.57
2023-04-16T13:23:38.104Z,4.45
2023-04-16T13:28:43.210Z,3.97
2023-04-16T13:33:46.684Z,5.05
2023-04-16T13:38:50.579Z,4.60
2023-04-16T13:43:55.482Z,4.65
2023-04-16T13:48:58.897Z,4.10
2023-04-16T13:54:02.337Z,4.10
2023-04-16T13:59:07.494Z,4.43
2023-04-16T14:04:11.302Z,5.32
2023-04-16T14:09:14.689Z,3.90
2023-04-16T14:14:19.422Z,5.20
2023-04-16T14:19:23.144Z,4.63
2023-04-16T14:24:26.801Z,5.18
2023-04-16T14:29:32.418Z,4.13
2023-04-16T14:34:35.901Z,4.75
2023-04-16T14:39:39.663Z,4.88
2023-04-16T14:44:44.377Z,5.18
2023-04-16T14:49:47.785Z,4.18
2023-04-16T14:54:52.268Z,4.13
2023-04-16T14:59:57.053Z,4.20
2023-04-16T15:05:01.427Z,4.47
2023-04-16T15:10:05.541Z,4.88
2023-04-16T15:15:11.693Z,7.20
2023-04-16T15:20:15.969Z,7.47
2023-04-16T15:25:19.580Z,4.88
2023-04-16T15:30:25.148Z,6.35
2023-04-16T15:35:29.072Z,5.75
2023-04-16T15:40:32.536Z,7.13
2023-04-16T15:45:37.553Z,4.18
2023-04-16T15:50:41.081Z,4.68
2023-04-16T15:55:44.558Z,6.28
2023-04-16T16:00:50.312Z,5.35
2023-04-16T16:05:54.069Z,5.78
2023-04-16T16:10:57.509Z,5.43
2023-04-16T16:16:03.397Z,4.15
2023-04-16T16:21:07.130Z,5.30
2023-04-16T16:26:10.565Z,6.03
2023-04-16T16:31:15.810Z,7.97
2023-04-16T16:36:19.474Z,7.32
2023-04-16T16:41:23.811Z,5.97
2023-04-16T16:46:28.909Z,6.88
2023-04-16T16:51:33.637Z,8.85
2023-04-16T16:56:37.663Z,7.60
2023-04-16T17:01:42.581Z,6.82
2023-04-16T17:06:46.116Z,6.50
2023-04-16T17:11:49.613Z,6.22
2023-04-16T17:16:57.027Z,7.60
2023-04-16T17:22:00.739Z,4.68
2023-04-16T17:27:04.614Z,4.97
2023-04-16T17:32:09.730Z,8.05
2023-04-16T17:37:14.106Z,6.40
2023-04-16T17:42:17.637Z,6.55
2023-04-16T17:47:22.475Z,4.32
2023-04-16T17:52:26.037Z,5.65
2023-04-16T17:57:29.739Z,5.70
2023-04-16T18:02:34.654Z,5.00
2023-04-16T18:07:39.053Z,4.97
2023-04-16T18:12:42.467Z,7.30
2023-04-16T18:17:47.295Z,5.05
2023-04-16T18:22:50.720Z,7.53
2023-04-16T18:27:54.414Z,7.47
2023-04-16T18:33:33.539Z,8.57
2023-04-16T18:38:23.150Z,9.38
2023-04-16T18:43:26.630Z,7.40
2023-04-16T18:48:31.780Z,9.18
2023-04-16T18:53:35.684Z,9.65
2023-04-16T18:58:39.089Z,17.48
2023-04-16T19:03:47.471Z,13.45
2023-04-16T19:08:51.076Z,13.77
2023-04-16T19:13:54.941Z,11.82
2023-04-16T19:19:00.048Z,11.38
2023-04-16T19:24:03.637Z,9.68
2023-04-16T19:29:07.298Z,10.60
2023-04-16T19:34:12.102Z,12.65
2023-04-16T19:39:15.660Z,14.80
2023-04-16T19:44:19.476Z,16.05
2023-04-16T19:49:25.254Z,12.82
2023-04-16T19:54:28.768Z,15.65
2023-04-16T19:59:32.679Z,14.50
2023-04-16T20:04:37.663Z,14.88
2023-04-16T20:09:41.193Z,15.55
2023-04-16T20:14:44.913Z,17.50
2023-04-16T20:19:51.225Z,19.38
2023-04-16T20:24:55.176Z,19.75
2023-04-16T20:29:58.708Z,16.40
2023-04-16T20:35:10.192Z,19.23
2023-04-16T20:40:14.971Z,19.50
2023-04-16T20:45:18.604Z,18.70
2023-04-16T20:50:24.657Z,16.52
2023-04-16T20:55:28.161Z,18.55
2023-04-16T21:00:31.567Z,20.17
2023-04-16T21:05:36.987Z,15.05
2023-04-16T21:10:41.875Z,23.95
2023-04-16T21:15:46.073Z,19.42
2023-04-16T21:20:51.256Z,20.80
2023-04-16T21:25:56.543Z,19.80
2023-04-16T21:31:00.017Z,19.27
2023-04-16T21:36:05.101Z,18.10
2023-04-16T21:41:08.481Z,16.63
2023-04-16T21:46:12.363Z,15.43
2023-04-16T21:51:18.219Z,17.92
2023-04-16T21:56:21.656Z,18.30
2023-04-16T22:01:25.134Z,15.98
2023-04-16T22:06:30.036Z,18.85
2023-04-16T22:11:33.440Z,16.90
2023-04-16T22:16:36.989Z,18.42
2023-04-16T22:21:42.325Z,16.83
2023-04-16T22:26:45.997Z,17.30
2023-04-16T22:31:49.451Z,16.00
2023-04-16T22:36:54.284Z,19.00
2023-04-16T22:41:57.700Z,17.25
2023-04-16T22:47:01.077Z,19.02
2023-04-16T22:52:06.170Z,20.58
2023-04-16T22:57:09.630Z,20.20
2023-04-16T23:02:13.189Z,18.40
2023-04-16T23:07:18.020Z,21.92
2023-04-16T23:12:21.483Z,19.73
2023-04-16T23:17:25.221Z,21.85
2023-04-16T23:22:30.536Z,22.35
2023-04-16T23:27:34.024Z,24.65
2023-04-16T23:32:37.455Z,24.17
2023-04-16T23:37:42.656Z,23.70
2023-04-16T23:42:46.165Z,27.13
2023-04-16T23:47:50.824Z,22.10
2023-04-16T23:52:55.649Z,26.05
2023-04-16T23:57:59.019Z,24.08
